createdAt,value
2023-04-01T00:00:36.023Z,9.90
2023-04-01T00:03:08.098Z,9.90
2023-04-01T00:05:40.085Z,9.90
2023-04-01T00:08:13.411Z,9.90
2023-04-01T00:10:45.459Z,9.90
2023-04-01T00:13:18.248Z,9.90
2023-04-01T00:15:52.454Z,9.90
2023-04-01T00:18:25.104Z,9.90
2023-04-01T00:20:57.995Z,9.90
2023-04-01T00:23:31.027Z,9.90
2023-04-01T00:26:06.541Z,9.90
2023-04-01T00:28:39.863Z,9.80
2023-04-01T00:31:12.899Z,9.80
2023-04-01T00:33:44.563Z,9.90
2023-04-01T00:36:19.503Z,9.90
2023-04-01T00:38:53.614Z,9.90
2023-04-01T00:41:27.057Z,9.90
2023-04-01T00:44:20.102Z,9.80
2023-04-01T00:46:53.545Z,9.90
2023-04-01T00:49:29.028Z,9.90
2023-04-01T00:52:06.199Z,9.90
2023-04-01T00:54:43.995Z,9.80
2023-04-01T00:57:22.140Z,9.80
2023-04-01T00:59:57.458Z,9.80
2023-04-01T01:02:29.761Z,9.80
2023-04-01T01:05:01.405Z,9.80
2023-04-01T01:07:46.792Z,9.80
2023-04-01T01:10:26.073Z,9.80
2023-04-01T01:13:10.697Z,9.80
2023-04-01T01:15:48.594Z,9.80
2023-04-01T01:18:35.701Z,9.80
2023-04-01T01:21:48.281Z,9.80
2023-04-01T01:24:41.526Z,9.80
2023-04-01T01:27:18.756Z,9.80
2023-04-01T01:30:41.394Z,9.70
2023-04-01T01:33:35.057Z,9.70
2023-04-01T01:36:15.942Z,9.70
2023-04-01T01:38:49.459Z,9.70
2023-04-01T01:41:25.785Z,9.70
2023-04-01T01:44:01.953Z,9.70
2023-04-01T01:46:35.025Z,9.70
2023-04-01T01:49:09.446Z,9.70
2023-04-01T01:51:44.035Z,9.70
2023-04-01T01:54:19.508Z,9.70
2023-04-01T01:57:02.774Z,9.60
2023-04-01T01:59:38.596Z,9.70
2023-04-01T02:02:13.405Z,9.70
2023-04-01T02:04:48.093Z,9.70
2023-04-01T02:07:30.138Z,9.70
2023-04-01T02:10:02.152Z,9.70
2023-04-01T02:12:37.291Z,9.70
2023-04-01T02:15:15.905Z,9.60
2023-04-01T02:17:52.186Z,9.60
2023-04-01T02:20:29.155Z,9.60
2023-04-01T02:23:06.299Z,9.60
2023-04-01T02:25:43.425Z,9.60
2023-04-01T02:28:24.510Z,9.60
2023-04-01T02:30:56.720Z,9.60
2023-04-01T02:33:29.241Z,9.60
2023-04-01T02:36:01.397Z,9.60
2023-04-01T02:38:37.771Z,9.60
2023-04-01T02:41:09.973Z,9.60
2023-04-01T02:43:41.822Z,9.60
2023-04-01T02:46:13.777Z,9.60
2023-04-01T02:48:45.611Z,9.60
2023-04-01T02:51:18.433Z,9.60
2023-04-01T02:53:51.537Z,9.60
2023-04-01T02:56:23.530Z,9.60
2023-04-01T02:58:55.893Z,9.60
2023-04-01T03:01:28.268Z,9.60
2023-04-01T03:03:59.941Z,9.60
2023-04-01T03:06:31.998Z,9.60
2023-04-01T03:09:05.350Z,9.50
2023-04-01T03:11:36.898Z,9.50
2023-04-01T03:14:08.814Z,9.50
2023-04-01T03:16:40.781Z,9.50
2023-04-01T03:19:12.435Z,9.50
2023-04-01T03:21:44.262Z,9.50
2023-04-01T03:24:17.489Z,9.60
2023-04-01T03:26:49.402Z,9.50
2023-04-01T03:29:21.261Z,9.50
2023-04-01T03:31:53.103Z,9.50
2023-04-01T03:34:25.129Z,9.50
2023-04-01T03:36:56.941Z,9.50
2023-04-01T03:39:30.266Z,9.50
2023-04-01T03:42:01.815Z,9.50
2023-04-01T03:44:35.940Z,9.50
2023-04-01T03:47:10.015Z,9.40
2023-04-01T03:49:41.962Z,9.50
2023-04-01T03:52:15.265Z,9.40
2023-04-01T03:54:48.280Z,9.40
2023-04-01T03:57:20.310Z,9.40
2023-04-01T03:59:52.071Z,9.50
2023-04-01T04:02:24.051Z,9.40
2023-04-01T04:04:55.813Z,9.40
2023-04-01T04:07:27.777Z,9.40
2023-04-01T04:10:00.969Z,9.40
2023-04-01T04:12:32.902Z,9.40
2023-04-01T04:15:04.853Z,9.40
2023-04-01T04:17:36.801Z,9.40
2023-04-01T04:20:11.162Z,9.40
2023-04-01T04:22:42.857Z,9.40
2023-04-01T04:25:16.242Z,9.40
2023-04-01T04:27:48.026Z,9.40
2023-04-01T04:30:19.824Z,9.40
2023-04-01T04:32:51.623Z,9.40
2023-04-01T04:35:23.442Z,9.40
2023-04-01T04:37:55.576Z,9.40
2023-04-01T04:40:29.047Z,9.40
2023-04-01T04:43:01.118Z,9.40
2023-04-01T04:45:33.461Z,9.40
2023-04-01T04:48:05.739Z,9.40
2023-04-01T04:50:37.872Z,9.40
2023-04-01T04:53:11.277Z,9.30
2023-04-01T04:55:47.751Z,9.30
2023-04-01T04:58:20.760Z,9.30
2023-04-01T05:00:52.840Z,9.40
2023-04-01T05:03:24.660Z,9.30
2023-04-01T05:05:58.033Z,9.30
2023-04-01T05:08:30.091Z,9.30
2023-04-01T05:11:04.077Z,9.30
2023-04-01T05:13:36.110Z,9.30
2023-04-01T05:16:12.083Z,9.30
2023-04-01T05:18:44.376Z,9.30
2023-04-01T05:21:18.134Z,9.30
2023-04-01T05:23:50.102Z,9.30
2023-04-01T05:26:23.702Z,9.30
2023-04-01T05:28:55.713Z,9.30
2023-04-01T05:31:27.674Z,9.30
2023-04-01T05:33:59.830Z,9.30
2023-04-01T05:36:31.952Z,9.30
2023-04-01T05:39:04.343Z,9.30
2023-04-01T05:41:39.906Z,9.30
2023-04-01T05:44:15.391Z,9.30
2023-04-01T05:46:47.389Z,9.30
2023-04-01T05:49:19.254Z,9.30
2023-04-01T05:51:52.320Z,9.30
2023-04-01T05:54:24.575Z,9.40
2023-04-01T05:56:58.060Z,9.40
2023-04-01T05:59:32.136Z,9.40
2023-04-01T06:02:04.418Z,9.40
2023-04-01T06:04:43.068Z,9.40
2023-04-01T06:07:20.214Z,9.50
2023-04-01T06:09:52.701Z,9.50
2023-04-01T06:12:43.681Z,9.50
2023-04-01T06:15:36.851Z,9.50
2023-04-01T06:18:47.759Z,9.50
2023-04-01T06:21:49.704Z,9.50
2023-04-01T06:24:53.901Z,9.50
2023-04-01T06:27:45.541Z,9.50
2023-04-01T06:30:44.379Z,9.60
2023-04-01T06:33:52.635Z,9.60
2023-04-01T06:36:42.547Z,9.60
2023-04-01T06:39:45.275Z,9.60
2023-04-01T06:42:35.637Z,9.70
2023-04-01T06:45:26.185Z,9.70
2023-04-01T06:48:16.411Z,9.70
2023-04-01T06:50:57.212Z,9.80
2023-04-01T06:53:44.411Z,9.80
2023-04-01T06:56:20.001Z,9.80
2023-04-01T06:58:57.949Z,9.80
2023-04-01T07:01:37.407Z,9.90
2023-04-01T07:04:18.448Z,9.90
2023-04-01T07:06:56.072Z,9.90
2023-04-01T07:09:38.928Z,10.00
2023-04-01T07:12:20.754Z,10.00
2023-04-01T07:14:57.897Z,10.00
2023-04-01T07:17:35.750Z,10.10
2023-04-01T07:20:17.926Z,10.10
2023-04-01T07:22:53.624Z,10.10
2023-04-01T07:25:30.837Z,10.10
2023-04-01T07:28:07.359Z,10.10
2023-04-01T07:30:54.804Z,10.20
2023-04-01T07:33:35.814Z,10.20
2023-04-01T07:36:16.072Z,10.20
2023-04-01T07:39:04.914Z,10.30
2023-04-01T07:41:47.551Z,10.30
2023-04-01T07:44:27.630Z,10.30
2023-04-01T07:47:14.953Z,10.30
2023-04-01T07:49:58.957Z,10.30
2023-04-01T07:52:38.844Z,10.40
2023-04-01T07:55:22.429Z,10.40
2023-04-01T07:58:02.409Z,10.40
2023-04-01T08:00:42.209Z,10.40
2023-04-01T08:03:38.729Z,10.50
2023-04-01T08:06:20.762Z,10.50
2023-04-01T08:09:03.433Z,10.50
2023-04-01T08:11:49.785Z,10.60
2023-04-01T08:14:33.393Z,10.60
2023-04-01T08:17:14.691Z,10.70
2023-04-01T08:20:05.929Z,10.70
2023-04-01T08:22:47.150Z,10.80
2023-04-01T08:25:26.790Z,10.80
2023-04-01T08:28:06.626Z,10.90
2023-04-01T08:30:47.980Z,11.00
2023-04-01T08:33:26.091Z,11.00
2023-04-01T08:36:03.845Z,11.10
2023-04-01T08:38:42.631Z,11.10
2023-04-01T08:41:53.405Z,11.20
2023-04-01T08:45:08.519Z,11.30
2023-04-01T08:48:09.757Z,11.40
2023-04-01T08:51:11.519Z,11.40
2023-04-01T08:54:13.123Z,11.40
2023-04-01T08:56:59.252Z,11.40
2023-04-01T08:59:52.741Z,11.40
2023-04-01T09:02:59.121Z,11.50
2023-04-01T09:06:14.585Z,11.50
2023-04-01T09:09:11.619Z,11.50
2023-04-01T09:12:20.867Z,11.60
2023-04-01T09:15:34.645Z,11.70
2023-04-01T09:18:49.257Z,11.80
2023-04-01T09:21:34.032Z,11.90
2023-04-01T09:24:35.121Z,12.00
2023-04-01T09:27:24.724Z,12.00
2023-04-01T09:30:35.377Z,12.00
2023-04-01T09:34:02.616Z,12.00
2023-04-01T09:36:57.774Z,12.00
2023-04-01T09:39:51.248Z,12.00
2023-04-01T09:42:51.343Z,12.00
2023-04-01T09:45:40.021Z,12.00
2023-04-01T09:48:36.772Z,12.00
2023-04-01T09:51:25.116Z,12.10
2023-04-01T09:54:13.212Z,12.10
2023-04-01T09:57:44.388Z,12.10
2023-04-01T10:01:05.395Z,12.10
2023-04-01T10:04:26.466Z,12.20
2023-04-01T10:07:36.237Z,12.10
2023-04-01T10:10:41.864Z,12.10
2023-04-01T10:14:13.608Z,12.20
2023-04-01T10:17:34.716Z,12.10
2023-04-01T10:20:23.130Z,12.00
2023-04-01T10:23:42.761Z,12.00
2023-04-01T10:26:58.479Z,12.00
2023-04-01T10:30:29.571Z,11.90
2023-04-01T10:33:56.945Z,12.00
2023-04-01T10:36:52.828Z,12.00
2023-04-01T10:40:26.758Z,12.00
2023-04-01T10:43:43.053Z,12.00
2023-04-01T10:47:04.751Z,12.00
2023-04-01T10:49:53.324Z,12.00
2023-04-01T10:53:17.941Z,12.00
2023-04-01T10:56:26.496Z,12.00
2023-04-01T10:59:38.038Z,12.10
2023-04-01T11:02:56.802Z,12.10
2023-04-01T11:06:33.837Z,12.10
2023-04-01T11:09:50.761Z,12.10
2023-04-01T11:13:02.952Z,12.10
2023-04-01T11:15:59.550Z,12.20
2023-04-01T11:19:34.773Z,12.20
2023-04-01T11:22:31.441Z,12.20
2023-04-01T11:25:52.233Z,12.30
2023-04-01T11:28:52.685Z,12.30
2023-04-01T11:31:45.817Z,12.20
2023-04-01T11:34:48.015Z,12.30
2023-04-01T11:37:35.862Z,12.30
2023-04-01T11:40:24.522Z,12.30
2023-04-01T11:43:17.255Z,12.30
2023-04-01T11:46:04.347Z,12.20
2023-04-01T11:49:06.548Z,12.30
2023-04-01T11:52:06.870Z,12.30
2023-04-01T11:55:17.150Z,12.30
2023-04-01T11:58:04.767Z,12.40
2023-04-01T12:01:17.253Z,12.40
2023-04-01T12:04:22.220Z,12.40
2023-04-01T12:07:05.644Z,12.30
2023-04-01T12:09:50.431Z,12.30
2023-04-01T12:12:40.173Z,12.30
2023-04-01T12:15:31.027Z,12.30
2023-04-01T12:18:14.860Z,12.30
2023-04-01T12:20:58.405Z,12.40
2023-04-01T12:24:04.505Z,12.40
2023-04-01T12:27:07.064Z,12.40
2023-04-01T12:30:24.042Z,12.40
2023-04-01T12:33:38.632Z,12.50
2023-04-01T12:36:27.157Z,12.50
2023-04-01T12:39:21.865Z,12.60
2023-04-01T12:42:07.695Z,12.60
2023-04-01T12:44:52.930Z,12.60
2023-04-01T12:47:47.692Z,12.60
2023-04-01T12:50:40.494Z,12.60
2023-04-01T12:53:40.628Z,12.60
2023-04-01T12:56:26.444Z,12.60
2023-04-01T12:59:37.327Z,12.60
2023-04-01T13:02:34.045Z,12.70
2023-04-01T13:05:52.127Z,12.70
2023-04-01T13:08:47.195Z,12.70
2023-04-01T13:11:33.265Z,12.70
2023-04-01T13:14:42.580Z,12.70
2023-04-01T13:17:28.888Z,12.60
2023-04-01T13:20:15.909Z,12.70
2023-04-01T13:23:02.882Z,12.70
2023-04-01T13:25:45.815Z,12.70
2023-04-01T13:28:26.743Z,12.70
2023-04-01T13:31:11.878Z,12.70
2023-04-01T13:33:58.245Z,12.60
2023-04-01T13:36:46.692Z,12.50
2023-04-01T13:39:32.694Z,12.30
2023-04-01T13:42:18.892Z,12.20
2023-04-01T13:44:58.347Z,12.10
2023-04-01T13:48:16.492Z,12.00
2023-04-01T13:51:27.872Z,11.80
2023-04-01T13:54:33.509Z,11.90
2023-04-01T13:57:26.744Z,11.70
2023-04-01T14:00:21.623Z,11.60
2023-04-01T14:03:16.548Z,11.40
2023-04-01T14:06:12.120Z,11.40
2023-04-01T14:09:10.965Z,11.20
2023-04-01T14:11:54.951Z,11.40
2023-04-01T14:14:38.774Z,11.30
2023-04-01T14:17:42.056Z,11.10
2023-04-01T14:20:28.630Z,11.00
2023-04-01T14:23:32.509Z,11.00
2023-04-01T14:26:28.745Z,10.90
2023-04-01T14:29:13.210Z,10.80
2023-04-01T14:32:08.862Z,10.90
2023-04-01T14:35:01.660Z,10.90
2023-04-01T14:38:23.511Z,10.90
2023-04-01T14:41:03.832Z,10.90
2023-04-01T14:44:04.811Z,10.80
2023-04-01T14:47:12.001Z,10.80
2023-04-01T14:49:48.501Z,10.70
2023-04-01T14:52:30.331Z,10.70
2023-04-01T14:55:13.455Z,10.40
2023-04-01T14:57:59.744Z,10.40
2023-04-01T15:00:49.371Z,10.30
2023-04-01T15:03:28.300Z,10.30
2023-04-01T15:06:26.527Z,10.30
2023-04-01T15:09:10.027Z,10.20
2023-04-01T15:11:58.498Z,10.10
2023-04-01T15:14:53.005Z,10.10
2023-04-01T15:17:53.994Z,10.00
2023-04-01T15:20:50.010Z,10.00
2023-04-01T15:23:47.454Z,10.00
2023-04-01T15:26:35.251Z,10.00
2023-04-01T15:29:36.329Z,10.00
2023-04-01T15:32:18.757Z,9.90
2023-04-01T15:35:05.245Z,9.90
2023-04-01T15:37:54.551Z,9.80
2023-04-01T15:40:34.965Z,9.90
2023-04-01T15:43:26.348Z,9.90
2023-04-01T15:46:14.921Z,9.70
2023-04-01T15:49:02.063Z,9.80
2023-04-01T15:52:05.108Z,9.60
2023-04-01T15:55:14.641Z,9.60
2023-04-01T15:58:00.060Z,9.50
2023-04-01T16:00:45.121Z,9.40
2023-04-01T16:03:35.383Z,9.40
2023-04-01T16:07:04.848Z,9.30
2023-04-01T16:10:01.470Z,9.20
2023-04-01T16:12:55.300Z,9.20
2023-04-01T16:15:39.280Z,9.20
2023-04-01T16:18:34.928Z,9.20
2023-04-01T16:21:14.103Z,9.00
2023-04-01T16:23:54.093Z,9.10
2023-04-01T16:26:38.131Z,9.10
2023-04-01T16:29:22.996Z,9.10
2023-04-01T16:32:16.518Z,9.10
2023-04-01T16:35:05.268Z,9.00
2023-04-01T16:37:45.350Z,8.90
2023-04-01T16:40:27.814Z,8.80
2023-04-01T16:43:12.275Z,8.80
2023-04-01T16:45:55.336Z,8.70
2023-04-01T16:48:37.967Z,8.60
2023-04-01T16:51:17.885Z,8.70
2023-04-01T16:53:54.887Z,8.70
2023-04-01T16:56:30.733Z,8.70
2023-04-01T16:59:17.073Z,8.60
2023-04-01T17:01:55.684Z,8.40
2023-04-01T17:04:38.494Z,8.30
2023-04-01T17:07:32.585Z,8.30
2023-04-01T17:10:24.637Z,8.20
2023-04-01T17:13:15.434Z,8.20
2023-04-01T17:15:57.542Z,8.10
2023-04-01T17:18:44.631Z,8.20
2023-04-01T17:21:26.461Z,8.20
2023-04-01T17:24:13.133Z,8.20
2023-04-01T17:26:56.261Z,8.00
2023-04-01T17:29:41.274Z,7.90
2023-04-01T17:32:30.128Z,7.90
2023-04-01T17:35:13.832Z,7.80
2023-04-01T17:38:05.954Z,7.90
2023-04-01T17:40:53.655Z,7.70
2023-04-01T17:43:42.723Z,7.80
2023-04-01T17:46:37.484Z,7.80
2023-04-01T17:49:29.616Z,7.70
2023-04-01T17:52:13.412Z,7.70
2023-04-01T17:54:54.835Z,7.70
2023-04-01T17:57:48.611Z,7.70
2023-04-01T18:00:27.270Z,7.70
2023-04-01T18:03:16.707Z,7.80
2023-04-01T18:06:09.580Z,7.60
2023-04-01T18:08:59.129Z,7.60
2023-04-01T18:11:54.878Z,7.50
2023-04-01T18:15:03.221Z,7.50
2023-04-01T18:17:54.507Z,7.40
2023-04-01T18:20:43.460Z,7.40
2023-04-01T18:23:28.556Z,7.40
2023-04-01T18:26:10.615Z,7.40
2023-04-01T18:28:49.978Z,7.40
2023-04-01T18:31:34.166Z,7.40
2023-04-01T18:34:16.605Z,7.20
2023-04-01T18:36:55.412Z,7.20
2023-04-01T18:39:40.038Z,7.10
2023-04-01T18:42:26.221Z,7.10
2023-04-01T18:45:11.818Z,7.00
2023-04-01T18:47:57.896Z,7.10
2023-04-01T18:50:38.589Z,7.00
2023-04-01T18:53:21.810Z,6.90
2023-04-01T18:55:58.782Z,7.00
2023-04-01T18:58:36.526Z,6.90
2023-04-01T19:01:24.685Z,6.80
2023-04-01T19:04:14.059Z,6.90
2023-04-01T19:06:52.743Z,6.90
2023-04-01T19:09:28.633Z,7.00
2023-04-01T19:12:29.726Z,7.00
2023-04-01T19:15:28.178Z,6.90
2023-04-01T19:18:44.227Z,6.80
2023-04-01T19:21:22.570Z,6.80
2023-04-01T19:24:14.712Z,6.70
2023-04-01T19:26:55.024Z,6.70
2023-04-01T19:29:44.554Z,6.70
2023-04-01T19:32:32.244Z,6.60
2023-04-01T19:35:17.800Z,6.50
2023-04-01T19:38:04.193Z,6.50
2023-04-01T19:40:51.573Z,6.40
2023-04-01T19:43:44.126Z,6.40
2023-04-01T19:46:27.264Z,6.30
2023-04-01T19:49:23.870Z,6.30
2023-04-01T19:52:00.062Z,6.30
2023-04-01T19:54:45.413Z,6.20
2023-04-01T19:57:29.463Z,6.20
2023-04-01T20:00:18.069Z,6.10
2023-04-01T20:03:03.593Z,6.10
2023-04-01T20:05:53.855Z,6.10
2023-04-01T20:08:38.750Z,6.10
2023-04-01T20:11:31.906Z,6.10
2023-04-01T20:14:15.492Z,6.00
2023-04-01T20:16:59.391Z,6.00
2023-04-01T20:19:36.837Z,5.80
2023-04-01T20:22:26.020Z,5.90
2023-04-01T20:25:07.118Z,5.80
2023-04-01T20:27:47.562Z,5.80
2023-04-01T20:30:47.119Z,5.80
2023-04-01T20:33:48.337Z,5.80
2023-04-01T20:36:28.838Z,5.80
2023-04-01T20:39:37.320Z,5.70
2023-04-01T20:42:29.535Z,5.70
2023-04-01T20:45:20.698Z,5.70
2023-04-01T20:48:13.798Z,5.60
2023-04-01T20:50:53.106Z,5.60
2023-04-01T20:53:33.201Z,5.70
2023-04-01T20:56:26.552Z,5.70
2023-04-01T20:59:17.059Z,5.70
2023-04-01T21:02:03.286Z,5.70
2023-04-01T21:04:49.829Z,5.70
2023-04-01T21:07:33.908Z,5.60
2023-04-01T21:10:31.529Z,5.50
2023-04-01T21:13:23.345Z,5.50
2023-04-01T21:16:10.422Z,5.50
2023-04-01T21:18:58.795Z,5.50
2023-04-01T21:21:52.243Z,5.40
2023-04-01T21:24:56.938Z,5.40
2023-04-01T21:27:49.617Z,5.40
2023-04-01T21:30:46.220Z,5.40
2023-04-01T21:33:35.085Z,5.30
2023-04-01T21:36:23.679Z,5.20
2023-04-01T21:39:15.449Z,5.20
2023-04-01T21:42:22.853Z,5.10
2023-04-01T21:45:18.004Z,5.10
2023-04-01T21:48:30.628Z,5.10
2023-04-01T21:51:55.796Z,5.00
2023-04-01T21:55:24.020Z,5.10
2023-04-01T21:58:42.506Z,5.20
2023-04-01T22:02:00.034Z,5.10
2023-04-01T22:04:49.606Z,5.00
2023-04-01T22:07:27.936Z,5.00
2023-04-01T22:10:13.521Z,4.90
2023-04-01T22:12:55.832Z,4.90
2023-04-01T22:15:47.311Z,4.90
2023-04-01T22:18:29.836Z,5.00
2023-04-01T22:21:10.331Z,5.00
2023-04-01T22:23:53.526Z,4.90
2023-04-01T22:26:37.318Z,4.90
2023-04-01T22:29:19.400Z,4.80
2023-04-01T22:32:01.218Z,4.80
2023-04-01T22:34:46.378Z,4.60
2023-04-01T22:37:33.594Z,4.60
2023-04-01T22:40:24.349Z,4.70
2023-04-01T22:43:04.829Z,4.80
2023-04-01T22:46:02.128Z,4.70
2023-04-01T22:48:43.442Z,4.70
2023-04-01T22:51:25.045Z,4.60
2023-04-01T22:54:18.215Z,4.60
2023-04-01T22:56:57.988Z,4.60
2023-04-01T22:59:37.115Z,4.70
2023-04-01T23:02:16.822Z,4.60
2023-04-01T23:04:55.970Z,4.60
2023-04-01T23:07:50.073Z,4.50
2023-04-01T23:10:28.226Z,4.60
2023-04-01T23:13:03.955Z,4.50
2023-04-01T23:15:39.015Z,4.50
2023-04-01T23:18:23.575Z,4.60
2023-04-01T23:21:08.641Z,4.40
2023-04-01T23:23:54.224Z,4.30
2023-04-01T23:26:34.607Z,4.40
2023-04-01T23:29:13.449Z,4.30
2023-04-01T23:31:47.608Z,4.30
2023-04-01T23:34:30.090Z,4.40
2023-04-01T23:37:03.686Z,4.40
2023-04-01T23:39:37.763Z,4.30
2023-04-01T23:42:16.734Z,4.40
2023-04-01T23:44:51.316Z,4.30
2023-04-01T23:47:26.346Z,4.30
2023-04-01T23:50:04.575Z,4.30
2023-04-01T23:52:42.180Z,4.30
2023-04-01T23:55:24.582Z,4.30
2023-04-01T23:58:11.776Z,4.30
